Terminal Aerodrome Forecast
Issued by NWS Twin Cities, MN

Home | Current Version | Previous Version | Text Only | Print | Product List | Glossary Off
Versions: 1 2 3 4 5 6 7 8 9 10 11 12 13 14 15 16 17 18 19 20 21 22 23 24 25 26 27

073
FTUS43 KMPX 201500 AAA
TAFMSP
TAF AMD
KMSP 201500Z 2015/2118 13006KT 3SM -DZ BR OVC004
     FM201800 11004KT 3SM BR OVC005
     FM210300 10005KT 3SM -DZ BR OVC003=

USA.gov is the U.S. government's official web portal to all federal, state and local government web resources and services.